createdAt,value
2022-11-24T00:01:21.333Z,18.80
2022-11-24T00:04:01.859Z,19.23
2022-11-24T00:06:31.401Z,19.40
2022-11-24T00:08:59.386Z,19.58
2022-11-24T00:11:30.425Z,18.73
2022-11-24T00:13:58.933Z,18.90
2022-11-24T00:16:33.482Z,18.27
2022-11-24T00:19:04.140Z,16.85
2022-11-24T00:21:32.830Z,17.88
2022-11-24T00:24:00.500Z,17.92
2022-11-24T00:26:36.688Z,19.33
2022-11-24T00:29:07.709Z,19.30
2022-11-24T00:31:38.581Z,17.90
2022-11-24T00:34:11.584Z,18.55
2022-11-24T00:36:40.473Z,19.25
2022-11-24T00:39:15.849Z,18.73
2022-11-24T00:41:44.358Z,18.65
2022-11-24T00:44:13.556Z,19.05
2022-11-24T00:46:40.832Z,18.00
2022-11-24T00:49:07.877Z,18.63
2022-11-24T00:51:35.103Z,18.45
2022-11-24T00:54:02.446Z,16.60
2022-11-24T00:56:30.675Z,16.80
2022-11-24T00:58:58.299Z,18.08
2022-11-24T01:01:29.062Z,19.15
2022-11-24T01:03:56.610Z,18.70
2022-11-24T01:06:27.749Z,18.83
2022-11-24T01:08:56.025Z,17.23
2022-11-24T01:11:27.673Z,18.25
2022-11-24T01:13:59.285Z,18.02
2022-11-24T01:16:33.054Z,18.58
2022-11-24T01:19:01.549Z,16.75
2022-11-24T01:21:28.694Z,17.55
2022-11-24T01:23:55.555Z,16.80
2022-11-24T01:26:23.511Z,16.05
2022-11-24T01:28:58.363Z,17.73
2022-11-24T01:31:27.188Z,16.50
2022-11-24T01:33:54.620Z,15.50
2022-11-24T01:36:23.194Z,16.52
2022-11-24T01:38:50.889Z,16.40
2022-11-24T01:41:25.323Z,18.48
2022-11-24T01:43:54.468Z,16.30
2022-11-24T01:46:44.877Z,17.52
2022-11-24T01:49:20.823Z,16.10
2022-11-24T01:51:55.812Z,14.95
2022-11-24T01:54:38.574Z,15.07
2022-11-24T01:57:33.594Z,15.65
2022-11-24T02:00:08.341Z,16.52
2022-11-24T02:05:12.241Z,15.15
2022-11-24T02:07:39.702Z,16.02
2022-11-24T02:10:13.286Z,16.55
2022-11-24T02:12:46.329Z,15.60
2022-11-24T02:15:16.827Z,17.75
2022-11-24T02:17:44.232Z,18.10
2022-11-24T02:20:13.349Z,16.60
2022-11-24T02:22:55.037Z,16.10
2022-11-24T02:25:59.208Z,15.45
2022-11-24T02:28:30.769Z,16.25
2022-11-24T02:31:00.922Z,15.50
2022-11-24T02:33:29.221Z,15.25
2022-11-24T02:35:56.081Z,15.50
2022-11-24T02:38:34.951Z,14.45
2022-11-24T02:41:09.067Z,14.32
2022-11-24T02:43:43.335Z,14.63
2022-11-24T02:46:10.926Z,15.38
2022-11-24T02:48:39.135Z,13.60
2022-11-24T02:51:06.331Z,13.95
2022-11-24T02:53:33.517Z,14.77
2022-11-24T02:56:00.429Z,13.80
2022-11-24T02:58:29.786Z,13.68
2022-11-24T03:00:57.364Z,12.95
2022-11-24T03:03:25.746Z,14.50
2022-11-24T03:05:54.131Z,14.55
2022-11-24T03:08:21.379Z,14.48
2022-11-24T03:10:49.134Z,14.07
2022-11-24T03:13:16.228Z,14.07
2022-11-24T03:15:43.204Z,14.23
2022-11-24T03:18:10.500Z,15.35
2022-11-24T03:20:37.445Z,16.65
2022-11-24T03:23:04.538Z,16.15
2022-11-24T03:25:31.473Z,16.20
2022-11-24T03:27:58.634Z,15.77
2022-11-24T03:30:26.112Z,16.85
2022-11-24T03:32:53.870Z,16.55
2022-11-24T03:35:22.418Z,15.90
2022-11-24T03:37:49.608Z,16.60
2022-11-24T03:40:18.045Z,16.13
2022-11-24T03:42:45.181Z,16.35
2022-11-24T03:45:37.957Z,16.65
2022-11-24T03:47:59.215Z,16.70
2022-11-24T03:50:26.380Z,15.95
2022-11-24T03:52:53.537Z,17.63
2022-11-24T03:55:20.473Z,17.80
2022-11-24T03:57:47.972Z,15.75
2022-11-24T04:00:15.795Z,15.68
2022-11-24T04:02:43.155Z,16.30
2022-11-24T04:05:10.464Z,15.55
2022-11-24T04:07:37.629Z,14.40
2022-11-24T04:10:05.719Z,14.38
2022-11-24T04:12:44.860Z,14.45
2022-11-24T04:15:18.826Z,14.45
2022-11-24T04:17:47.974Z,15.07
2022-11-24T04:20:15.589Z,15.57
2022-11-24T04:22:43.318Z,15.95
2022-11-24T04:25:11.271Z,15.57
2022-11-24T04:27:39.342Z,15.95
2022-11-24T04:30:07.654Z,15.32
2022-11-24T04:32:35.355Z,15.73
2022-11-24T04:35:02.619Z,15.48
2022-11-24T04:37:29.751Z,15.27
2022-11-24T04:39:56.683Z,14.57
2022-11-24T04:42:23.815Z,16.33
2022-11-24T04:44:50.591Z,14.60
2022-11-24T04:47:22.322Z,14.25
2022-11-24T04:49:50.009Z,15.18
2022-11-24T04:52:19.604Z,15.90
2022-11-24T04:54:47.862Z,14.65
2022-11-24T04:57:25.053Z,15.25
2022-11-24T04:59:53.283Z,17.63
2022-11-24T05:02:21.333Z,15.43
2022-11-24T05:04:48.317Z,14.95
2022-11-24T05:07:19.133Z,15.27
2022-11-24T05:10:06.440Z,14.07
2022-11-24T05:12:33.805Z,15.07
2022-11-24T05:15:03.908Z,15.48
2022-11-24T05:17:33.497Z,15.18
2022-11-24T05:20:00.797Z,13.80
2022-11-24T05:22:29.993Z,14.25
2022-11-24T05:24:56.927Z,15.13
2022-11-24T05:27:24.356Z,13.63
2022-11-24T05:29:51.190Z,13.73
2022-11-24T05:32:18.328Z,14.38
2022-11-24T05:34:45.268Z,14.02
2022-11-24T05:37:12.437Z,14.18
2022-11-24T05:39:39.279Z,13.82
2022-11-24T05:42:26.722Z,13.70
2022-11-24T05:44:53.961Z,12.70
2022-11-24T05:47:21.955Z,13.15
2022-11-24T05:49:48.769Z,13.85
2022-11-24T05:52:17.245Z,13.15
2022-11-24T05:54:44.054Z,13.90
2022-11-24T05:57:11.146Z,13.20
2022-11-24T05:59:37.900Z,13.45
2022-11-24T06:02:05.116Z,12.73
2022-11-24T06:04:32.622Z,13.60
2022-11-24T06:07:00.309Z,13.30
2022-11-24T06:09:27.243Z,12.85
2022-11-24T06:11:54.561Z,13.18
2022-11-24T06:14:21.451Z,12.40
2022-11-24T06:16:48.600Z,14.18
2022-11-24T06:19:15.431Z,13.13
2022-11-24T06:21:42.556Z,13.48
2022-11-24T06:24:09.422Z,14.05
2022-11-24T06:26:36.489Z,12.52
2022-11-24T06:29:03.611Z,13.15
2022-11-24T06:31:30.761Z,13.20
2022-11-24T06:33:57.998Z,13.80
2022-11-24T06:36:25.607Z,12.38
2022-11-24T06:38:53.245Z,12.80
2022-11-24T06:41:20.633Z,13.38
2022-11-24T06:43:48.035Z,12.95
2022-11-24T06:46:15.333Z,12.80
2022-11-24T06:48:42.252Z,13.82
2022-11-24T06:51:14.792Z,12.00
2022-11-24T06:53:41.952Z,12.40
2022-11-24T06:56:16.278Z,13.20
2022-11-24T07:01:25.826Z,13.13
2022-11-24T07:03:54.879Z,12.70
2022-11-24T07:06:24.526Z,12.93
2022-11-24T07:08:52.021Z,13.23
2022-11-24T07:11:23.612Z,13.88
2022-11-24T07:13:56.476Z,12.10
2022-11-24T07:16:27.003Z,12.43
2022-11-24T07:18:55.323Z,12.27
2022-11-24T07:21:25.036Z,13.70
2022-11-24T07:23:56.902Z,12.60
2022-11-24T07:26:25.310Z,12.30
2022-11-24T07:28:53.611Z,12.15
2022-11-24T07:31:25.036Z,12.93
2022-11-24T07:33:54.755Z,13.50
2022-11-24T07:36:23.897Z,13.80
2022-11-24T07:38:51.585Z,13.00
2022-11-24T07:41:21.207Z,12.18
2022-11-24T07:43:49.003Z,13.68
2022-11-24T07:46:19.352Z,13.20
2022-11-24T07:48:47.261Z,12.90
2022-11-24T07:51:15.911Z,12.75
2022-11-24T07:53:43.205Z,12.07
2022-11-24T07:56:11.319Z,12.18
2022-11-24T07:58:38.566Z,11.80
2022-11-24T08:01:19.154Z,15.02
2022-11-24T08:03:47.359Z,12.13
2022-11-24T08:06:24.414Z,11.18
2022-11-24T08:08:52.309Z,11.35
2022-11-24T08:11:19.566Z,11.38
2022-11-24T08:13:46.915Z,10.82
2022-11-24T08:16:17.675Z,10.05
2022-11-24T08:18:53.221Z,10.45
2022-11-24T08:21:23.339Z,12.45
2022-11-24T08:23:54.021Z,11.02
2022-11-24T08:26:21.217Z,9.70
2022-11-24T08:28:52.533Z,11.05
2022-11-24T08:31:19.828Z,11.10
2022-11-24T08:33:47.088Z,9.73
2022-11-24T08:36:19.167Z,10.25
2022-11-24T08:38:47.236Z,10.35
2022-11-24T08:41:17.257Z,10.32
2022-11-24T08:43:44.840Z,10.20
2022-11-24T08:46:18.885Z,11.50
2022-11-24T08:48:54.612Z,11.70
2022-11-24T08:51:27.593Z,10.95
2022-11-24T08:53:57.271Z,10.18
2022-11-24T08:56:26.897Z,12.07
2022-11-24T08:58:55.663Z,10.38
2022-11-24T09:01:24.538Z,10.65
2022-11-24T09:03:52.287Z,10.95
2022-11-24T09:06:25.205Z,10.07
2022-11-24T09:08:54.665Z,9.82
2022-11-24T09:11:22.516Z,10.40
2022-11-24T09:13:49.890Z,10.10
2022-11-24T09:16:27.677Z,10.55
2022-11-24T09:19:08.069Z,9.38
2022-11-24T09:21:38.685Z,9.50
2022-11-24T09:24:07.833Z,9.98
2022-11-24T09:26:39.778Z,9.05
2022-11-24T09:29:10.881Z,10.30
2022-11-24T09:31:39.609Z,10.68
2022-11-24T09:34:11.124Z,10.60
2022-11-24T09:36:38.244Z,10.63
2022-11-24T09:39:05.461Z,10.20
2022-11-24T09:42:07.516Z,10.13
2022-11-24T09:44:54.789Z,10.27
2022-11-24T09:47:46.886Z,8.95
2022-11-24T09:50:28.135Z,10.80
2022-11-24T09:53:12.583Z,8.77
2022-11-24T09:55:47.265Z,8.57
2022-11-24T09:58:24.455Z,9.77
2022-11-24T10:00:55.022Z,10.13
2022-11-24T10:03:35.370Z,10.10
2022-11-24T10:06:28.515Z,10.15
2022-11-24T10:09:31.945Z,11.18
2022-11-24T10:12:34.539Z,10.07
2022-11-24T10:15:25.716Z,12.63
2022-11-24T10:18:30.548Z,11.25
2022-11-24T10:21:35.420Z,9.90
2022-11-24T10:24:20.485Z,10.68
2022-11-24T10:27:13.534Z,10.27
2022-11-24T10:29:42.656Z,10.00
2022-11-24T10:32:31.414Z,10.65
2022-11-24T10:35:20.081Z,10.18
2022-11-24T10:38:06.388Z,11.68
2022-11-24T10:40:58.188Z,10.05
2022-11-24T10:43:29.413Z,10.98
2022-11-24T10:46:19.771Z,10.07
2022-11-24T10:49:05.154Z,10.10
2022-11-24T10:52:06.051Z,10.95
2022-11-24T10:54:35.954Z,9.75
2022-11-24T10:57:03.876Z,9.65
2022-11-24T10:59:36.947Z,13.68
2022-11-24T11:02:31.706Z,11.48
2022-11-24T11:04:59.556Z,12.02
2022-11-24T11:07:27.022Z,11.07
2022-11-24T11:10:24.324Z,10.73
2022-11-24T11:12:51.395Z,10.43
2022-11-24T11:15:29.665Z,9.85
2022-11-24T11:18:01.453Z,13.02
2022-11-24T11:20:35.128Z,12.02
2022-11-24T11:23:21.556Z,11.10
2022-11-24T11:25:48.739Z,11.10
2022-11-24T11:28:29.884Z,10.00
2022-11-24T11:31:16.519Z,10.98
2022-11-24T11:34:04.580Z,10.38
2022-11-24T11:36:39.610Z,14.75
2022-11-24T11:39:06.820Z,10.35
2022-11-24T11:41:45.902Z,12.73
2022-11-24T11:44:39.970Z,13.27
2022-11-24T11:47:23.304Z,11.93
2022-11-24T11:49:50.788Z,13.25
2022-11-24T11:52:59.223Z,12.57
2022-11-24T11:56:16.625Z,11.63
2022-11-24T11:58:55.752Z,11.85
2022-11-24T12:02:21.945Z,11.07
2022-11-24T12:04:57.797Z,12.48
2022-11-24T12:07:37.064Z,11.48
2022-11-24T12:10:23.403Z,14.68
2022-11-24T12:13:27.753Z,12.73
2022-11-24T12:16:04.023Z,12.70
2022-11-24T12:19:00.303Z,10.07
2022-11-24T12:21:47.407Z,11.68
2022-11-24T12:24:40.524Z,9.95
2022-11-24T12:27:49.895Z,10.27
2022-11-24T12:30:20.695Z,13.10
2022-11-24T12:33:29.513Z,12.77
2022-11-24T12:36:22.569Z,14.43
2022-11-24T12:39:05.368Z,11.55
2022-11-24T12:42:04.398Z,12.07
2022-11-24T12:45:08.529Z,11.93
2022-11-24T12:48:12.138Z,11.68
2022-11-24T12:50:44.575Z,10.48
2022-11-24T12:53:34.925Z,11.20
2022-11-24T12:56:11.003Z,10.85
2022-11-24T12:59:05.824Z,11.48
2022-11-24T13:01:42.159Z,11.47
2022-11-24T13:04:37.585Z,10.98
2022-11-24T13:07:15.006Z,12.23
2022-11-24T13:10:46.983Z,11.80
2022-11-24T13:13:15.416Z,12.20
2022-11-24T13:16:34.715Z,10.88
2022-11-24T13:18:58.832Z,12.27
2022-11-24T13:21:40.995Z,14.82
2022-11-24T13:24:18.281Z,12.13
2022-11-24T13:26:50.474Z,11.93
2022-11-24T13:29:37.767Z,11.98
2022-11-24T13:32:07.573Z,11.25
2022-11-24T13:34:40.842Z,12.07
2022-11-24T13:37:33.912Z,12.13
2022-11-24T13:40:11.856Z,11.50
2022-11-24T13:43:02.998Z,12.18
2022-11-24T13:45:39.313Z,14.30
2022-11-24T13:48:22.440Z,16.42
2022-11-24T13:50:50.125Z,13.82
2022-11-24T13:53:47.688Z,11.85
2022-11-24T13:56:17.577Z,16.58
2022-11-24T13:58:47.919Z,11.95
2022-11-24T14:01:35.479Z,13.27
2022-11-24T14:04:32.878Z,16.25
2022-11-24T14:07:09.083Z,13.55
2022-11-24T14:10:02.793Z,14.18
2022-11-24T14:12:33.712Z,13.02
2022-11-24T14:15:34.237Z,14.10
2022-11-24T14:18:01.334Z,17.70
2022-11-24T14:20:29.410Z,15.23
2022-11-24T14:22:56.598Z,12.73
2022-11-24T14:25:32.029Z,13.38
2022-11-24T14:28:00.678Z,13.52
2022-11-24T14:30:27.766Z,12.23
2022-11-24T14:33:02.132Z,12.65
2022-11-24T14:35:35.120Z,13.82
2022-11-24T14:38:05.824Z,11.95
2022-11-24T14:40:52.547Z,13.13
2022-11-24T14:43:33.119Z,12.02
2022-11-24T14:46:06.274Z,12.50
2022-11-24T14:48:38.951Z,12.40
2022-11-24T14:51:28.125Z,14.43
2022-11-24T14:54:01.110Z,14.07
2022-11-24T14:56:35.687Z,16.20
2022-11-24T15:01:34.618Z,12.85
2022-11-24T15:04:22.047Z,12.55
2022-11-24T15:07:14.380Z,13.18
2022-11-24T15:09:59.330Z,12.45
2022-11-24T15:12:40.788Z,12.70
2022-11-24T15:15:35.235Z,13.55
2022-11-24T15:18:04.992Z,13.88
2022-11-24T15:20:44.769Z,14.07
2022-11-24T15:23:29.619Z,13.70
2022-11-24T15:26:02.922Z,14.70
2022-11-24T15:28:31.526Z,13.05
2022-11-24T15:31:05.456Z,12.50
2022-11-24T15:33:33.180Z,12.27
2022-11-24T15:36:00.678Z,12.95
2022-11-24T15:38:27.591Z,12.25
2022-11-24T15:40:59.163Z,12.73
2022-11-24T15:43:40.995Z,12.10
2022-11-24T15:46:09.446Z,13.93
2022-11-24T15:48:36.628Z,12.70
2022-11-24T15:51:13.898Z,12.13
2022-11-24T15:53:49.912Z,16.35
2022-11-24T15:56:25.897Z,13.50
2022-11-24T15:58:53.198Z,14.40
2022-11-24T16:01:24.544Z,14.90
2022-11-24T16:03:51.407Z,14.75
2022-11-24T16:06:25.314Z,13.57
2022-11-24T16:08:56.540Z,13.27
2022-11-24T16:11:24.006Z,14.23
2022-11-24T16:13:53.341Z,13.32
2022-11-24T16:16:24.706Z,14.65
2022-11-24T16:18:52.044Z,17.45
2022-11-24T16:21:19.185Z,16.40
2022-11-24T16:23:46.673Z,19.38
2022-11-24T16:26:13.877Z,15.45
2022-11-24T16:28:40.777Z,15.02
2022-11-24T16:31:07.922Z,15.77
2022-11-24T16:33:34.856Z,13.48
2022-11-24T16:36:01.961Z,14.20
2022-11-24T16:38:28.849Z,13.52
2022-11-24T16:40:59.354Z,15.15
2022-11-24T16:43:29.279Z,17.15
2022-11-24T16:46:08.736Z,16.15
2022-11-24T16:48:36.687Z,18.42
2022-11-24T16:51:10.172Z,20.13
2022-11-24T16:53:38.125Z,18.60
2022-11-24T16:56:06.486Z,15.27
2022-11-24T16:58:34.138Z,20.48
2022-11-24T17:01:13.085Z,19.10
2022-11-24T17:03:40.577Z,17.85
2022-11-24T17:06:11.875Z,18.98
2022-11-24T17:08:40.538Z,14.10
2022-11-24T17:11:19.379Z,16.05
2022-11-24T17:13:47.563Z,15.68
2022-11-24T17:16:19.633Z,13.95
2022-11-24T17:18:47.713Z,12.55
2022-11-24T17:21:24.300Z,14.55
2022-11-24T17:24:05.205Z,13.95
2022-11-24T17:26:33.882Z,12.90
2022-11-24T17:29:01.078Z,14.32
2022-11-24T17:31:35.733Z,18.63
2022-11-24T17:34:05.692Z,14.27
2022-11-24T17:36:34.789Z,15.77
2022-11-24T17:39:04.765Z,11.77
2022-11-24T17:41:33.205Z,13.00
2022-11-24T17:44:00.124Z,13.48
2022-11-24T17:46:29.494Z,13.32
2022-11-24T17:48:57.832Z,14.32
2022-11-24T17:51:26.915Z,14.50
2022-11-24T17:53:55.595Z,11.82
2022-11-24T17:56:26.320Z,13.77
2022-11-24T17:58:56.342Z,14.68
2022-11-24T18:01:24.358Z,12.73
2022-11-24T18:03:53.655Z,11.13
2022-11-24T18:06:25.055Z,11.60
2022-11-24T18:08:54.287Z,18.60
2022-11-24T18:11:30.999Z,12.60
2022-11-24T18:14:04.048Z,12.75
2022-11-24T18:16:34.425Z,11.70
2022-11-24T18:19:09.789Z,10.65
2022-11-24T18:21:39.930Z,12.25
2022-11-24T18:24:09.045Z,11.15
2022-11-24T18:26:36.420Z,20.52
2022-11-24T18:29:04.282Z,11.43
2022-11-24T18:31:34.180Z,11.70
2022-11-24T18:34:02.864Z,12.20
2022-11-24T18:36:30.894Z,13.60
2022-11-24T18:39:01.856Z,10.73
2022-11-24T18:41:29.162Z,15.00
2022-11-24T18:43:56.163Z,9.13
2022-11-24T18:46:23.414Z,7.57
2022-11-24T18:48:53.001Z,9.20
2022-11-24T18:51:20.269Z,8.63
2022-11-24T18:53:53.413Z,12.07
2022-11-24T18:56:21.372Z,6.10
2022-11-24T18:58:48.297Z,8.07
2022-11-24T19:01:23.110Z,6.45
2022-11-24T19:03:56.494Z,6.82
2022-11-24T19:06:33.968Z,9.52
2022-11-24T19:09:06.071Z,9.52
2022-11-24T19:11:37.407Z,7.45
2022-11-24T19:14:08.447Z,6.70
2022-11-24T19:16:36.224Z,7.40
2022-11-24T19:19:04.070Z,7.32
2022-11-24T19:21:34.285Z,11.48
2022-11-24T19:24:05.241Z,8.65
2022-11-24T19:26:37.365Z,8.55
2022-11-24T19:29:06.660Z,8.10
2022-11-24T19:31:35.570Z,9.70
2022-11-24T19:34:03.612Z,7.70
2022-11-24T19:36:31.552Z,7.68
2022-11-24T19:38:59.656Z,11.20
2022-11-24T19:41:31.993Z,7.10
2022-11-24T19:43:59.780Z,6.43
2022-11-24T19:46:29.796Z,9.10
2022-11-24T19:49:01.204Z,8.25
2022-11-24T19:51:35.392Z,10.50
2022-11-24T19:54:05.057Z,9.10
2022-11-24T19:56:37.336Z,9.20
2022-11-24T19:59:06.823Z,10.70
2022-11-24T20:01:37.579Z,12.43
2022-11-24T20:04:15.541Z,9.23
2022-11-24T20:06:46.322Z,8.68
2022-11-24T20:09:17.019Z,7.65
2022-11-24T20:11:44.964Z,8.70
2022-11-24T20:14:14.504Z,7.32
2022-11-24T20:16:42.292Z,7.97
2022-11-24T20:19:15.852Z,9.50
2022-11-24T20:21:46.491Z,9.23
2022-11-24T20:24:20.678Z,6.60
2022-11-24T20:26:59.023Z,7.05
2022-11-24T20:29:28.379Z,6.47
2022-11-24T20:31:56.821Z,6.32
2022-11-24T20:34:24.272Z,7.25
2022-11-24T20:36:53.121Z,7.80
2022-11-24T20:39:26.195Z,9.20
2022-11-24T20:41:55.887Z,9.77
2022-11-24T20:44:25.979Z,8.63
2022-11-24T20:46:57.059Z,7.93
2022-11-24T20:49:24.002Z,7.47
2022-11-24T20:51:55.003Z,8.45
2022-11-24T20:54:22.187Z,8.23
2022-11-24T20:56:49.777Z,11.50
2022-11-24T20:59:21.665Z,9.68
2022-11-24T21:01:51.303Z,9.50
2022-11-24T21:04:23.261Z,7.13
2022-11-24T21:06:50.896Z,7.40
2022-11-24T21:09:18.402Z,7.82
2022-11-24T21:11:46.103Z,8.38
2022-11-24T21:14:13.922Z,7.90
2022-11-24T21:16:42.924Z,8.30
2022-11-24T21:19:14.126Z,9.20
2022-11-24T21:21:43.082Z,10.30
2022-11-24T21:24:16.461Z,9.77
2022-11-24T21:26:50.464Z,11.63
2022-11-24T21:29:19.486Z,8.80
2022-11-24T21:31:47.062Z,10.65
2022-11-24T21:34:18.431Z,9.05
2022-11-24T21:36:46.204Z,9.77
2022-11-24T21:39:16.695Z,9.60
2022-11-24T21:41:44.715Z,10.77
2022-11-24T21:44:13.545Z,9.05
2022-11-24T21:46:46.072Z,9.23
2022-11-24T21:49:17.003Z,10.20
2022-11-24T21:51:44.026Z,12.48
2022-11-24T21:54:11.119Z,9.52
2022-11-24T21:56:38.212Z,11.30
2022-11-24T21:59:05.374Z,10.90
2022-11-24T22:01:32.231Z,10.68
2022-11-24T22:03:59.492Z,11.60
2022-11-24T22:06:26.355Z,10.02
2022-11-24T22:08:55.260Z,9.50
2022-11-24T22:11:25.042Z,10.30
2022-11-24T22:13:52.795Z,8.70
2022-11-24T22:16:23.380Z,9.20
2022-11-24T22:18:51.605Z,10.20
2022-11-24T22:21:29.882Z,10.93
2022-11-24T22:23:57.514Z,12.30
2022-11-24T22:26:26.167Z,9.63
2022-11-24T22:28:55.418Z,9.05
2022-11-24T22:31:26.616Z,9.30
2022-11-24T22:33:55.683Z,9.57
2022-11-24T22:36:26.485Z,9.38
2022-11-24T22:39:03.294Z,8.32
2022-11-24T22:41:34.028Z,8.18
2022-11-24T22:44:01.282Z,8.75
2022-11-24T22:46:32.019Z,8.02
2022-11-24T22:49:01.732Z,7.57
2022-11-24T22:51:32.571Z,8.13
2022-11-24T22:54:03.404Z,9.52
2022-11-24T22:56:33.601Z,9.50
2022-11-24T22:59:02.590Z,8.63
2022-11-24T23:01:31.729Z,9.73
2022-11-24T23:03:59.060Z,9.65
2022-11-24T23:06:29.199Z,8.65
2022-11-24T23:08:59.105Z,8.10
2022-11-24T23:11:38.100Z,8.13
2022-11-24T23:14:15.149Z,7.57
2022-11-24T23:16:43.472Z,7.80
2022-11-24T23:19:10.905Z,6.88
2022-11-24T23:21:39.287Z,7.38
2022-11-24T23:24:08.829Z,9.10
2022-11-24T23:26:40.216Z,7.20
2022-11-24T23:29:09.772Z,7.65
2022-11-24T23:31:39.825Z,7.47
2022-11-24T23:34:07.351Z,7.82
2022-11-24T23:36:34.274Z,8.10
2022-11-24T23:39:07.187Z,9.32
2022-11-24T23:41:34.776Z,7.35
2022-11-24T23:44:02.094Z,6.85
2022-11-24T23:46:29.399Z,7.10
2022-11-24T23:48:57.412Z,6.82
2022-11-24T23:51:30.989Z,7.03
2022-11-24T23:54:00.073Z,6.70
2022-11-24T23:56:33.880Z,7.20
2022-11-24T23:59:03.907Z,6.68
